Time,TemperatureF,DewpointF,PressureIn,WindDirection,WindDirectionDegrees,WindSpeedMPH,WindSpeedGustMPH,Humidity,HourlyPrecipIn,Conditions,Clouds,dailyrainin,SoftwareType,DateUTC
2013-02-09 00:00:00,34.7,23.0,29.23,SW,232,0.0,0.0,62,0.00,,,0.00,VWS V14.00,2013-02-09 05:00:00,
2013-02-09 00:05:00,34.3,23.1,29.23,SW,232,0.0,0.0,63,0.00,,,0.00,VWS V14.00,2013-02-09 05:05:00,
2013-02-09 00:10:00,34.0,23.1,29.23,WSW,255,0.0,0.0,64,0.00,,,0.00,VWS V14.00,2013-02-09 05:10:00,
2013-02-09 00:15:00,33.8,23.3,29.23,East,98,0.0,0.0,65,0.00,,,0.00,VWS V14.00,2013-02-09 05:15:00,
2013-02-09 00:20:00,33.4,23.3,29.23,East,98,0.0,0.0,66,0.00,,,0.00,VWS V14.00,2013-02-09 05:20:00,
2013-02-09 00:25:00,33.6,24.2,29.23,SSE,165,0.0,2.5,68,0.00,,,0.00,VWS V14.00,2013-02-09 05:25:00,
2013-02-09 00:30:00,33.4,23.7,29.23,SSE,165,1.3,1.6,67,0.00,,,0.00,VWS V14.00,2013-02-09 05:30:00,
2013-02-09 00:35:00,33.4,24.0,29.23,NE,52,0.0,0.9,68,0.00,,,0.00,VWS V14.00,2013-02-09 05:35:00,
2013-02-09 00:40:00,33.4,24.4,29.23,WNW,300,0.0,0.0,69,0.00,,,0.00,VWS V14.00,2013-02-09 05:40:00,
2013-02-09 00:46:00,34.2,25.1,29.23,NW,322,0.9,2.9,69,0.00,,,0.00,VWS V14.00,2013-02-09 05:46:00,
2013-02-09 00:51:00,34.3,25.2,29.23,South,188,0.9,3.1,69,0.00,,,0.00,VWS V14.00,2013-02-09 05:51:00,
2013-02-09 00:56:00,34.3,24.9,29.23,WSW,255,0.0,2.5,68,0.00,,,0.00,VWS V14.00,2013-02-09 05:56:00,
2013-02-09 01:01:00,34.3,25.2,29.23,NW,322,2.7,2.7,69,0.00,,,0.00,VWS V14.00,2013-02-09 06:01:00,
2013-02-09 01:06:00,35.2,25.4,29.23,West,278,2.7,3.6,67,0.00,,,0.00,VWS V14.00,2013-02-09 06:06:00,
2013-02-09 01:11:00,36.0,25.0,29.23,West,278,4.3,6.5,64,0.00,,,0.00,VWS V14.00,2013-02-09 06:11:00,
2013-02-09 01:16:00,36.7,24.5,29.23,WNW,300,3.8,4.3,61,0.00,,,0.00,VWS V14.00,2013-02-09 06:16:00,
2013-02-09 01:21:00,37.0,24.1,29.23,West,278,3.6,4.3,59,0.00,,,0.00,VWS V14.00,2013-02-09 06:21:00,
2013-02-09 01:26:00,37.2,23.8,29.23,WNW,300,3.4,5.6,58,0.00,,,0.00,VWS V14.00,2013-02-09 06:26:00,
2013-02-09 01:31:00,37.4,23.1,29.23,West,278,2.9,4.9,56,0.00,,,0.00,VWS V14.00,2013-02-09 06:31:00,
2013-02-09 01:36:00,37.4,22.7,29.23,WNW,300,4.0,5.4,55,0.00,,,0.00,VWS V14.00,2013-02-09 06:36:00,
2013-02-09 01:41:00,37.4,22.7,29.23,NW,322,2.5,4.0,55,0.00,,,0.00,VWS V14.00,2013-02-09 06:41:00,
2013-02-09 01:47:00,37.4,22.7,29.23,WNW,300,3.6,8.7,55,0.00,,,0.00,VWS V14.00,2013-02-09 06:47:00,
2013-02-09 01:52:00,37.2,23.0,29.23,North,8,2.7,4.0,56,0.00,,,0.00,VWS V14.00,2013-02-09 06:52:00,
2013-02-09 01:57:00,37.2,22.6,29.23,NW,322,2.7,4.3,55,0.00,,,0.00,VWS V14.00,2013-02-09 06:57:00,
2013-02-09 02:02:00,36.9,22.6,29.23,West,278,1.6,2.9,56,0.00,,,0.00,VWS V14.00,2013-02-09 07:02:00,
2013-02-09 02:07:00,36.7,22.5,29.23,WNW,300,0.9,2.2,56,0.00,,,0.00,VWS V14.00,2013-02-09 07:07:00,
2013-02-09 02:12:00,36.3,22.1,29.23,WNW,300,1.1,2.2,56,0.00,,,0.00,VWS V14.00,2013-02-09 07:12:00,
2013-02-09 02:17:00,35.6,21.9,29.23,SW,232,0.0,2.2,57,0.00,,,0.00,VWS V14.00,2013-02-09 07:17:00,
2013-02-09 02:22:00,34.9,22.0,29.26,WSW,255,0.0,2.0,59,0.00,,,0.00,VWS V14.00,2013-02-09 07:22:00,
2013-02-09 02:27:00,34.5,21.7,29.26,SW,232,0.0,1.6,59,0.00,,,0.00,VWS V14.00,2013-02-09 07:27:00,
2013-02-09 02:32:00,34.2,22.1,29.26,South,188,0.0,0.0,61,0.00,,,0.00,VWS V14.00,2013-02-09 07:32:00,
2013-02-09 02:37:00,33.8,21.8,29.26,South,188,0.0,0.0,61,0.00,,,0.00,VWS V14.00,2013-02-09 07:37:00,
2013-02-09 02:42:00,33.6,22.0,29.26,South,188,0.0,0.0,62,0.00,,,0.00,VWS V14.00,2013-02-09 07:42:00,
2013-02-09 02:48:00,33.3,21.7,29.26,SSE,165,0.0,0.0,62,0.00,,,0.00,VWS V14.00,2013-02-09 07:48:00,
2013-02-09 02:53:00,33.1,22.6,29.26,East,98,2.2,2.7,65,0.00,,,0.00,VWS V14.00,2013-02-09 07:53:00,
2013-02-09 02:58:00,32.9,22.8,29.26,East,98,2.0,2.0,66,0.00,,,0.00,VWS V14.00,2013-02-09 07:58:00,
2013-02-09 03:03:00,32.4,22.6,29.26,East,98,0.0,0.0,67,0.00,,,0.00,VWS V14.00,2013-02-09 08:03:00,
2013-02-09 03:08:00,32.0,22.3,29.26,ESE,120,1.6,1.6,67,0.00,,,0.00,VWS V14.00,2013-02-09 08:08:00,
2013-02-09 03:13:00,31.6,22.6,29.26,ESE,120,0.0,0.0,69,0.00,,,0.00,VWS V14.00,2013-02-09 08:13:00,
2013-02-09 03:18:00,31.3,22.0,29.26,ESE,120,0.0,0.0,68,0.00,,,0.00,VWS V14.00,2013-02-09 08:18:00,
2013-02-09 03:23:00,31.1,22.1,29.26,ESE,120,0.0,0.0,69,0.00,,,0.00,VWS V14.00,2013-02-09 08:23:00,
2013-02-09 03:28:00,30.7,21.8,29.26,ESE,120,0.0,0.0,69,0.00,,,0.00,VWS V14.00,2013-02-09 08:28:00,
2013-02-09 03:33:00,30.4,21.4,29.26,ESE,120,0.0,0.0,69,0.00,,,0.00,VWS V14.00,2013-02-09 08:33:00,
2013-02-09 03:38:00,30.2,22.6,29.26,ESE,120,0.0,0.0,73,0.00,,,0.00,VWS V14.00,2013-02-09 08:38:00,
2013-02-09 03:43:00,29.5,22.9,29.26,WNW,300,2.2,2.7,76,0.00,,,0.00,VWS V14.00,2013-02-09 08:43:00,
2013-02-09 03:49:00,29.1,21.9,29.26,WNW,300,2.5,2.5,74,0.00,,,0.00,VWS V14.00,2013-02-09 08:49:00,
2013-02-09 03:54:00,28.9,22.6,29.26,WNW,300,2.9,2.9,77,0.00,,,0.00,VWS V14.00,2013-02-09 08:54:00,
2013-02-09 03:59:00,28.9,22.6,29.26,NW,322,0.0,0.0,77,0.00,,,0.00,VWS V14.00,2013-02-09 08:59:00,
2013-02-09 04:04:00,28.8,21.9,29.26,ENE,75,0.0,0.0,75,0.00,,,0.00,VWS V14.00,2013-02-09 09:04:00,
2013-02-09 04:09:00,28.8,22.5,29.23,East,98,2.5,2.5,77,0.00,,,0.00,VWS V14.00,2013-02-09 09:09:00,
2013-02-09 04:14:00,28.9,23.0,29.23,ESE,120,0.9,1.6,78,0.00,,,0.00,VWS V14.00,2013-02-09 09:14:00,
2013-02-09 04:19:00,28.9,22.6,29.23,ESE,120,0.0,0.0,77,0.00,,,0.00,VWS V14.00,2013-02-09 09:19:00,
2013-02-09 04:24:00,28.8,22.5,29.26,ESE,120,0.0,0.0,77,0.00,,,0.00,VWS V14.00,2013-02-09 09:24:00,
2013-02-09 04:29:00,28.6,22.0,29.26,ESE,120,0.0,0.0,76,0.00,,,0.00,VWS V14.00,2013-02-09 09:29:00,
2013-02-09 04:34:00,28.2,22.2,29.26,ESE,120,0.0,0.0,78,0.00,,,0.00,VWS V14.00,2013-02-09 09:34:00,
2013-02-09 04:39:00,27.9,21.9,29.26,ESE,120,0.0,0.0,78,0.00,,,0.00,VWS V14.00,2013-02-09 09:39:00,
2013-02-09 04:44:00,27.9,22.2,29.26,ESE,120,0.0,0.0,79,0.00,,,0.00,VWS V14.00,2013-02-09 09:44:00,
2013-02-09 04:50:00,27.9,21.9,29.26,ESE,120,0.0,0.0,78,0.00,,,0.00,VWS V14.00,2013-02-09 09:50:00,
2013-02-09 04:55:00,27.7,21.7,29.29,ESE,120,0.0,0.0,78,0.00,,,0.00,VWS V14.00,2013-02-09 09:55:00,
2013-02-09 05:00:00,27.7,21.7,29.29,ESE,120,0.0,0.0,78,0.00,,,0.00,VWS V14.00,2013-02-09 10:00:00,
2013-02-09 05:05:00,27.5,21.9,29.29,ESE,120,0.0,0.0,79,0.00,,,0.00,VWS V14.00,2013-02-09 10:05:00,
2013-02-09 05:10:00,27.5,22.5,29.29,ESE,120,0.0,0.0,81,0.00,,,0.00,VWS V14.00,2013-02-09 10:10:00,
2013-02-09 05:15:00,27.5,22.5,29.29,ESE,120,0.0,0.0,81,0.00,,,0.00,VWS V14.00,2013-02-09 10:15:00,
2013-02-09 05:20:00,27.3,22.0,29.29,ESE,120,0.0,0.0,80,0.00,,,0.00,VWS V14.00,2013-02-09 10:20:00,
2013-02-09 05:25:00,27.1,21.8,29.32,ESE,120,0.0,0.0,80,0.00,,,0.00,VWS V14.00,2013-02-09 10:25:00,
2013-02-09 05:30:00,27.0,21.6,29.32,ESE,120,0.0,0.0,80,0.00,,,0.00,VWS V14.00,2013-02-09 10:30:00,
2013-02-09 05:35:00,27.0,21.6,29.32,ESE,120,0.0,0.0,80,0.00,,,0.00,VWS V14.00,2013-02-09 10:35:00,
2013-02-09 05:40:00,26.8,21.5,29.29,ESE,120,0.0,0.0,80,0.00,,,0.00,VWS V14.00,2013-02-09 10:40:00,
2013-02-09 05:45:00,26.6,21.3,29.29,ESE,120,0.0,0.0,80,0.00,,,0.00,VWS V14.00,2013-02-09 10:45:00,
2013-02-09 05:51:00,26.4,21.1,29.29,ESE,120,0.0,0.0,80,0.00,,,0.00,VWS V14.00,2013-02-09 10:51:00,
2013-02-09 05:56:00,26.6,21.3,29.29,ESE,120,0.0,0.0,80,0.00,,,0.00,VWS V14.00,2013-02-09 10:56:00,
2013-02-09 06:03:00,26.6,21.6,29.29,ESE,120,0.0,0.0,81,0.00,,,0.00,VWS V14.00,2013-02-09 11:03:00,
2013-02-09 06:08:00,26.6,21.6,29.32,ESE,120,0.0,0.0,81,0.00,,,0.00,VWS V14.00,2013-02-09 11:08:00,
2013-02-09 06:14:00,26.6,21.9,29.32,ESE,120,0.0,0.0,82,0.00,,,0.00,VWS V14.00,2013-02-09 11:14:00,
2013-02-09 06:19:00,26.4,21.4,29.32,ESE,120,0.0,0.0,81,0.00,,,0.00,VWS V14.00,2013-02-09 11:19:00,
2013-02-09 06:24:00,26.2,21.5,29.32,ESE,120,0.0,0.0,82,0.00,,,0.00,VWS V14.00,2013-02-09 11:24:00,
2013-02-09 06:29:00,26.1,21.6,29.32,ESE,120,0.0,0.0,83,0.00,,,0.00,VWS V14.00,2013-02-09 11:29:00,
2013-02-09 06:34:00,26.1,21.6,29.32,ESE,120,0.0,0.0,83,0.00,,,0.00,VWS V14.00,2013-02-09 11:34:00,
2013-02-09 06:39:00,25.9,21.4,29.35,ESE,120,0.0,0.0,83,0.00,,,0.00,VWS V14.00,2013-02-09 11:39:00,
2013-02-09 06:44:00,25.7,21.3,29.35,ESE,120,0.0,0.0,83,0.00,,,0.00,VWS V14.00,2013-02-09 11:44:00,
2013-02-09 06:49:00,25.5,21.1,29.35,ESE,120,0.0,0.0,83,0.00,,,0.00,VWS V14.00,2013-02-09 11:49:00,
2013-02-09 06:54:00,25.3,20.9,29.35,ESE,120,0.0,0.0,83,0.00,,,0.00,VWS V14.00,2013-02-09 11:54:00,
2013-02-09 06:59:00,25.3,21.2,29.35,ESE,120,0.0,0.0,84,0.00,,,0.00,VWS V14.00,2013-02-09 11:59:00,
2013-02-09 07:04:00,25.3,21.2,29.35,ESE,120,0.0,0.0,84,0.00,,,0.00,VWS V14.00,2013-02-09 12:04:00,
2013-02-09 07:09:00,25.2,21.0,29.38,ESE,120,0.0,0.0,84,0.00,,,0.00,VWS V14.00,2013-02-09 12:09:00,
2013-02-09 07:15:00,25.2,21.0,29.38,ESE,120,0.0,0.0,84,0.00,,,0.00,VWS V14.00,2013-02-09 12:15:00,
2013-02-09 07:20:00,25.2,21.0,29.38,ESE,120,0.0,0.0,84,0.00,,,0.00,VWS V14.00,2013-02-09 12:20:00,
2013-02-09 07:25:00,25.2,21.0,29.38,ESE,120,0.0,0.0,84,0.00,,,0.00,VWS V14.00,2013-02-09 12:25:00,
2013-02-09 07:30:00,25.2,21.0,29.38,ESE,120,0.0,0.0,84,0.00,,,0.00,VWS V14.00,2013-02-09 12:30:00,
2013-02-09 07:35:00,25.2,21.3,29.38,ESE,120,0.0,0.0,85,0.00,,,0.00,VWS V14.00,2013-02-09 12:35:00,
2013-02-09 07:40:00,25.3,21.5,29.38,ESE,120,0.0,0.0,85,0.00,,,0.00,VWS V14.00,2013-02-09 12:40:00,
2013-02-09 07:45:00,25.3,21.5,29.38,ESE,120,0.0,0.0,85,0.00,,,0.00,VWS V14.00,2013-02-09 12:45:00,
2013-02-09 07:50:00,25.5,21.4,29.38,ESE,120,0.0,0.0,84,0.00,,,0.00,VWS V14.00,2013-02-09 12:50:00,
2013-02-09 07:55:00,25.7,21.8,29.38,ESE,120,0.0,0.0,85,0.00,,,0.00,VWS V14.00,2013-02-09 12:55:00,
2013-02-09 08:00:00,25.9,22.3,29.38,ESE,120,0.0,0.0,86,0.00,,,0.00,VWS V14.00,2013-02-09 13:00:00,
2013-02-09 08:05:00,26.1,22.5,29.38,ESE,120,0.0,0.0,86,0.00,,,0.00,VWS V14.00,2013-02-09 13:05:00,
2013-02-09 08:10:00,26.4,22.8,29.41,ESE,120,0.0,0.0,86,0.00,,,0.00,VWS V14.00,2013-02-09 13:10:00,
2013-02-09 08:16:00,26.6,23.3,29.41,ESE,120,0.0,0.0,87,0.00,,,0.00,VWS V14.00,2013-02-09 13:16:00,
2013-02-09 08:21:00,27.0,23.6,29.41,North,8,1.6,2.0,87,0.00,,,0.00,VWS V14.00,2013-02-09 13:21:00,
2013-02-09 08:26:00,27.7,24.3,29.41,North,8,0.0,0.0,87,0.00,,,0.00,VWS V14.00,2013-02-09 13:26:00,
2013-02-09 08:31:00,28.4,25.0,29.41,ESE,120,0.0,0.0,87,0.00,,,0.00,VWS V14.00,2013-02-09 13:31:00,
2013-02-09 08:36:00,31.5,28.3,29.41,ESE,120,0.0,0.0,88,0.00,,,0.00,VWS V14.00,2013-02-09 13:36:00,
2013-02-09 08:41:00,34.2,30.7,29.44,SW,232,0.0,0.0,87,0.00,,,0.00,VWS V14.00,2013-02-09 13:41:00,
2013-02-09 08:46:00,36.0,31.9,29.44,WNW,300,0.0,0.0,85,0.00,,,0.00,VWS V14.00,2013-02-09 13:46:00,
2013-02-09 08:51:00,37.2,31.6,29.44,North,8,0.0,0.0,80,0.00,,,0.00,VWS V14.00,2013-02-09 13:51:00,
2013-02-09 08:56:00,37.6,30.1,29.44,NNW,345,2.5,2.9,74,0.00,,,0.00,VWS V14.00,2013-02-09 13:56:00,
2013-02-09 09:01:00,39.4,28.6,29.44,NNW,345,1.1,2.7,65,0.00,,,0.00,VWS V14.00,2013-02-09 14:01:00,
2013-02-09 09:06:00,41.0,29.4,29.44,SSW,210,0.0,2.7,63,0.00,,,0.00,VWS V14.00,2013-02-09 14:06:00,
2013-02-09 09:11:00,41.9,26.5,29.44,WNW,300,2.5,3.1,54,0.00,,,0.00,VWS V14.00,2013-02-09 14:11:00,
2013-02-09 09:17:00,41.7,24.0,29.44,SW,232,1.6,3.8,49,0.00,,,0.00,VWS V14.00,2013-02-09 14:17:00,
2013-02-09 09:22:00,42.1,25.3,29.44,West,278,0.0,3.1,51,0.00,,,0.00,VWS V14.00,2013-02-09 14:22:00,
2013-02-09 09:27:00,42.6,23.3,29.44,NW,322,3.1,3.4,46,0.00,,,0.00,VWS V14.00,2013-02-09 14:27:00,
2013-02-09 09:32:00,43.2,24.8,29.44,NNW,345,1.6,4.3,48,0.00,,,0.00,VWS V14.00,2013-02-09 14:32:00,
2013-02-09 09:37:00,43.7,22.7,29.44,WNW,300,2.5,4.0,43,0.00,,,0.00,VWS V14.00,2013-02-09 14:37:00,
2013-02-09 09:42:00,43.2,21.1,29.44,West,278,2.5,4.7,41,0.00,,,0.00,VWS V14.00,2013-02-09 14:42:00,
2013-02-09 09:47:00,43.3,22.9,29.44,SW,232,2.7,3.6,44,0.00,,,0.00,VWS V14.00,2013-02-09 14:47:00,
2013-02-09 09:52:00,43.3,21.8,29.44,WNW,300,3.1,4.5,42,0.00,,,0.00,VWS V14.00,2013-02-09 14:52:00,
2013-02-09 09:57:00,44.1,21.9,29.44,NW,322,2.7,3.8,41,0.00,,,0.00,VWS V14.00,2013-02-09 14:57:00,
2013-02-09 10:02:00,44.6,21.8,29.44,NW,322,2.9,6.0,40,0.00,,,0.00,VWS V14.00,2013-02-09 15:02:00,
2013-02-09 10:07:00,44.4,21.6,29.44,NW,322,1.6,4.3,40,0.00,,,0.00,VWS V14.00,2013-02-09 15:07:00,
2013-02-09 10:12:00,44.8,22.0,29.44,NW,322,2.2,4.9,40,0.00,,,0.00,VWS V14.00,2013-02-09 15:12:00,
2013-02-09 10:17:00,45.1,21.7,29.44,NNW,345,2.7,4.3,39,0.00,,,0.00,VWS V14.00,2013-02-09 15:17:00,
2013-02-09 10:22:00,45.7,21.5,29.44,NW,322,2.9,3.8,38,0.00,,,0.00,VWS V14.00,2013-02-09 15:22:00,
2013-02-09 10:28:00,45.5,21.4,29.44,NW,322,3.4,4.7,38,0.00,,,0.00,VWS V14.00,2013-02-09 15:28:00,
2013-02-09 10:33:00,45.5,21.4,29.44,West,278,3.1,4.3,38,0.00,,,0.00,VWS V14.00,2013-02-09 15:33:00,
2013-02-09 10:38:00,45.5,21.4,29.44,NW,322,2.9,5.8,38,0.00,,,0.00,VWS V14.00,2013-02-09 15:38:00,
2013-02-09 10:43:00,46.0,21.9,29.44,West,278,4.0,4.0,38,0.00,,,0.00,VWS V14.00,2013-02-09 15:43:00,
2013-02-09 10:48:00,46.2,21.4,29.44,WNW,300,4.3,4.3,37,0.00,,,0.00,VWS V14.00,2013-02-09 15:48:00,
2013-02-09 10:53:00,47.5,22.5,29.44,West,278,2.5,2.5,37,0.00,,,0.00,VWS V14.00,2013-02-09 15:53:00,
2013-02-09 10:58:00,47.7,21.4,29.44,WNW,300,4.9,6.3,35,0.00,,,0.00,VWS V14.00,2013-02-09 15:58:00,
2013-02-09 11:03:00,47.3,21.7,29.44,WSW,255,4.5,4.9,36,0.00,,,0.00,VWS V14.00,2013-02-09 16:03:00,
2013-02-09 11:08:00,46.8,20.6,29.44,SW,232,4.3,4.3,35,0.00,,,0.00,VWS V14.00,2013-02-09 16:08:00,
2013-02-09 11:13:00,47.3,21.0,29.44,North,8,0.0,3.6,35,0.00,,,0.00,VWS V14.00,2013-02-09 16:13:00,
2013-02-09 11:18:00,47.7,20.7,29.44,NNW,345,3.1,5.4,34,0.00,,,0.00,VWS V14.00,2013-02-09 16:18:00,
2013-02-09 11:23:00,47.3,20.4,29.47,West,278,4.3,4.9,34,0.00,,,0.00,VWS V14.00,2013-02-09 16:23:00,
2013-02-09 11:28:00,46.9,18.6,29.47,West,278,6.0,6.5,32,0.00,,,0.00,VWS V14.00,2013-02-09 16:28:00,
2013-02-09 11:33:00,46.8,19.9,29.47,West,278,3.8,3.8,34,0.00,,,0.00,VWS V14.00,2013-02-09 16:33:00,
2013-02-09 11:39:00,47.5,19.8,29.44,SW,232,3.4,4.0,33,0.00,,,0.00,VWS V14.00,2013-02-09 16:39:00,
2013-02-09 11:44:00,48.4,20.6,29.44,WSW,255,1.1,2.5,33,0.00,,,0.00,VWS V14.00,2013-02-09 16:44:00,
2013-02-09 11:49:00,49.8,21.9,29.44,WNW,300,1.6,1.6,33,0.00,,,0.00,VWS V14.00,2013-02-09 16:49:00,
2013-02-09 11:54:00,50.2,20.7,29.47,NW,322,3.6,5.6,31,0.00,,,0.00,VWS V14.00,2013-02-09 16:54:00,
2013-02-09 11:59:00,49.8,20.4,29.47,West,278,4.3,4.3,31,0.00,,,0.00,VWS V14.00,2013-02-09 16:59:00,
2013-02-09 12:04:00,49.3,19.9,29.47,WSW,255,5.6,5.6,31,0.00,,,0.00,VWS V14.00,2013-02-09 17:04:00,
2013-02-09 12:09:00,49.1,19.0,29.44,North,8,4.3,5.4,30,0.00,,,0.00,VWS V14.00,2013-02-09 17:09:00,
2013-02-09 12:14:00,49.6,19.5,29.44,WNW,300,3.6,5.6,30,0.00,,,0.00,VWS V14.00,2013-02-09 17:14:00,
2013-02-09 12:19:00,49.5,18.5,29.44,WNW,300,5.6,6.3,29,0.00,,,0.00,VWS V14.00,2013-02-09 17:19:00,
2013-02-09 12:24:00,49.5,19.3,29.44,North,8,3.1,5.8,30,0.00,,,0.00,VWS V14.00,2013-02-09 17:24:00,
2013-02-09 12:29:00,50.5,20.3,29.44,NNW,345,4.3,4.3,30,0.00,,,0.00,VWS V14.00,2013-02-09 17:29:00,
2013-02-09 12:34:00,50.9,20.6,29.44,WSW,255,2.7,4.0,30,0.00,,,0.00,VWS V14.00,2013-02-09 17:34:00,
2013-02-09 12:39:00,51.3,20.1,29.44,West,278,3.6,6.3,29,0.00,,,0.00,VWS V14.00,2013-02-09 17:39:00,
2013-02-09 12:44:00,51.3,19.3,29.44,WSW,255,3.8,6.3,28,0.00,,,0.00,VWS V14.00,2013-02-09 17:44:00,
2013-02-09 12:49:00,51.3,19.3,29.44,NW,322,1.6,6.0,28,0.00,,,0.00,VWS V14.00,2013-02-09 17:49:00,
2013-02-09 12:55:00,50.9,19.0,29.44,West,278,3.8,4.0,28,0.00,,,0.00,VWS V14.00,2013-02-09 17:55:00,
2013-02-09 13:00:00,51.6,19.6,29.44,West,278,2.7,4.7,28,0.00,,,0.00,VWS V14.00,2013-02-09 18:00:00,
2013-02-09 13:05:00,51.6,19.6,29.44,West,278,4.0,5.4,28,0.00,,,0.00,VWS V14.00,2013-02-09 18:05:00,
2013-02-09 13:10:00,52.2,20.1,29.44,West,278,2.9,3.1,28,0.00,,,0.00,VWS V14.00,2013-02-09 18:10:00,
2013-02-09 13:15:00,52.0,19.9,29.44,West,278,5.4,7.8,28,0.00,,,0.00,VWS V14.00,2013-02-09 18:15:00,
2013-02-09 13:20:00,52.0,19.9,29.44,NNW,345,1.6,3.8,28,0.00,,,0.00,VWS V14.00,2013-02-09 18:20:00,
2013-02-09 13:25:00,51.4,19.4,29.44,WNW,300,6.0,6.0,28,0.00,,,0.00,VWS V14.00,2013-02-09 18:25:00,
2013-02-09 13:30:00,51.8,19.8,29.44,NNE,30,1.3,3.6,28,0.00,,,0.00,VWS V14.00,2013-02-09 18:30:00,
2013-02-09 13:35:00,52.7,20.5,29.44,WNW,300,3.1,3.1,28,0.00,,,0.00,VWS V14.00,2013-02-09 18:35:00,
2013-02-09 13:40:00,52.5,19.5,29.44,NNW,345,5.6,6.3,27,0.00,,,0.00,VWS V14.00,2013-02-09 18:40:00,
2013-02-09 13:45:00,52.9,20.7,29.44,WNW,300,2.7,3.8,28,0.00,,,0.00,VWS V14.00,2013-02-09 18:45:00,
2013-02-09 13:50:00,53.2,20.1,29.44,WNW,300,3.8,5.4,27,0.00,,,0.00,VWS V14.00,2013-02-09 18:50:00,
2013-02-09 13:55:00,52.9,19.8,29.44,NW,322,4.3,5.4,27,0.00,,,0.00,VWS V14.00,2013-02-09 18:55:00,
2013-02-09 14:00:00,53.1,20.0,29.44,West,278,1.3,6.0,27,0.00,,,0.00,VWS V14.00,2013-02-09 19:00:00,
2013-02-09 14:05:00,53.6,20.5,29.44,NNW,345,4.0,4.9,27,0.00,,,0.00,VWS V14.00,2013-02-09 19:05:00,
2013-02-09 14:10:00,55.0,22.5,29.44,West,278,3.1,3.1,28,0.00,,,0.00,VWS V14.00,2013-02-09 19:10:00,
2013-02-09 14:15:00,54.3,21.1,29.44,WNW,300,3.8,5.8,27,0.00,,,0.00,VWS V14.00,2013-02-09 19:15:00,
2013-02-09 14:21:00,55.9,22.5,29.44,WNW,300,2.2,2.9,27,0.00,,,0.00,VWS V14.00,2013-02-09 19:21:00,
2013-02-09 14:26:00,56.3,22.8,29.44,SSE,165,2.7,5.8,27,0.00,,,0.00,VWS V14.00,2013-02-09 19:26:00,
2013-02-09 14:31:00,56.8,22.3,29.44,West,278,4.9,5.6,26,0.00,,,0.00,VWS V14.00,2013-02-09 19:31:00,
2013-02-09 14:36:00,55.9,21.6,29.44,WNW,300,3.4,5.4,26,0.00,,,0.00,VWS V14.00,2013-02-09 19:36:00,
2013-02-09 14:41:00,56.1,21.7,29.44,SW,232,0.9,3.6,26,0.00,,,0.00,VWS V14.00,2013-02-09 19:41:00,
2013-02-09 14:46:00,56.5,22.0,29.44,West,278,3.4,4.9,26,0.00,,,0.00,VWS V14.00,2013-02-09 19:46:00,
2013-02-09 14:51:00,57.0,22.5,29.44,West,278,3.4,5.6,26,0.00,,,0.00,VWS V14.00,2013-02-09 19:51:00,
2013-02-09 14:56:00,56.8,22.3,29.44,WSW,255,2.7,4.3,26,0.00,,,0.00,VWS V14.00,2013-02-09 19:56:00,
2013-02-09 15:01:00,57.0,22.5,29.44,SSW,210,1.6,5.6,26,0.00,,,0.00,VWS V14.00,2013-02-09 20:01:00,
2013-02-09 15:06:00,56.3,21.9,29.44,NW,322,3.1,4.3,26,0.00,,,0.00,VWS V14.00,2013-02-09 20:06:00,
2013-02-09 15:11:00,56.5,22.0,29.41,West,278,1.1,5.8,26,0.04,,,0.04,VWS V14.00,2013-02-09 20:11:00,
2013-02-09 15:16:00,56.7,22.2,29.41,NNE,30,2.7,4.3,26,0.04,,,0.04,VWS V14.00,2013-02-09 20:16:00,
2013-02-09 15:21:00,57.0,22.5,29.41,West,278,2.9,3.8,26,0.04,,,0.04,VWS V14.00,2013-02-09 20:21:00,
2013-02-09 15:26:00,56.3,21.9,29.44,SW,232,2.7,4.0,26,0.04,,,0.04,VWS V14.00,2013-02-09 20:26:00,
2013-02-09 15:32:00,55.8,21.4,29.44,NNW,345,2.5,3.4,26,0.04,,,0.04,VWS V14.00,2013-02-09 20:32:00,
2013-02-09 15:37:00,55.9,21.6,29.44,WNW,300,0.0,4.9,26,0.04,,,0.04,VWS V14.00,2013-02-09 20:37:00,
2013-02-09 15:42:00,55.9,21.6,29.41,SW,232,2.0,4.0,26,0.04,,,0.04,VWS V14.00,2013-02-09 20:42:00,
2013-02-09 15:47:00,56.8,22.3,29.41,NW,322,2.5,4.3,26,0.04,,,0.04,VWS V14.00,2013-02-09 20:47:00,
2013-02-09 15:52:00,56.8,22.3,29.41,WNW,300,3.1,3.8,26,0.04,,,0.04,VWS V14.00,2013-02-09 20:52:00,
2013-02-09 15:57:00,56.8,22.3,29.41,SSW,210,2.2,4.7,26,0.04,,,0.04,VWS V14.00,2013-02-09 20:57:00,
2013-02-09 16:02:00,56.1,21.7,29.41,WSW,255,2.0,4.3,26,0.04,,,0.04,VWS V14.00,2013-02-09 21:02:00,
2013-02-09 16:07:00,55.6,21.3,29.44,WNW,300,3.6,5.6,26,0.04,,,0.04,VWS V14.00,2013-02-09 21:07:00,
2013-02-09 16:12:00,55.8,21.4,29.44,NW,322,3.4,3.4,26,0.04,,,0.04,VWS V14.00,2013-02-09 21:12:00,
2013-02-09 16:17:00,55.8,21.4,29.44,WSW,255,2.9,3.6,26,0.00,,,0.04,VWS V14.00,2013-02-09 21:17:00,
2013-02-09 16:22:00,56.3,21.9,29.44,South,188,0.0,2.7,26,0.00,,,0.04,VWS V14.00,2013-02-09 21:22:00,
2013-02-09 16:27:00,57.0,22.5,29.44,West,278,2.0,3.1,26,0.00,,,0.04,VWS V14.00,2013-02-09 21:27:00,
2013-02-09 16:32:00,57.2,22.6,29.44,WSW,255,1.6,3.6,26,0.00,,,0.04,VWS V14.00,2013-02-09 21:32:00,
2013-02-09 16:37:00,57.2,22.6,29.44,West,278,2.5,3.4,26,0.00,,,0.04,VWS V14.00,2013-02-09 21:37:00,
2013-02-09 16:43:00,57.6,23.0,29.44,SW,232,1.3,3.4,26,0.00,,,0.04,VWS V14.00,2013-02-09 21:43:00,
2013-02-09 16:48:00,56.7,22.2,29.44,WNW,300,3.1,3.8,26,0.00,,,0.04,VWS V14.00,2013-02-09 21:48:00,
2013-02-09 16:53:00,55.9,21.6,29.44,WNW,300,3.8,4.0,26,0.00,,,0.04,VWS V14.00,2013-02-09 21:53:00,
2013-02-09 16:58:00,55.9,20.6,29.44,WNW,300,2.7,4.9,25,0.00,,,0.04,VWS V14.00,2013-02-09 21:58:00,
2013-02-09 17:03:00,56.5,22.0,29.44,WSW,255,0.0,0.0,26,0.00,,,0.04,VWS V14.00,2013-02-09 22:03:00,
2013-02-09 17:08:00,56.8,22.3,29.44,WNW,300,0.9,1.3,26,0.00,,,0.04,VWS V14.00,2013-02-09 22:08:00,
2013-02-09 17:13:00,56.8,22.3,29.44,South,188,0.0,0.0,26,0.00,,,0.04,VWS V14.00,2013-02-09 22:13:00,
2013-02-09 17:18:00,55.6,21.3,29.44,NNW,345,1.3,2.7,26,0.00,,,0.04,VWS V14.00,2013-02-09 22:18:00,
2013-02-09 17:23:00,54.0,20.8,29.44,North,8,0.0,0.0,27,0.00,,,0.04,VWS V14.00,2013-02-09 22:23:00,
2013-02-09 17:28:00,52.5,19.5,29.44,North,8,0.0,0.0,27,0.00,,,0.04,VWS V14.00,2013-02-09 22:28:00,
2013-02-09 17:33:00,51.3,18.4,29.44,North,8,0.0,0.0,27,0.00,,,0.04,VWS V14.00,2013-02-09 22:33:00,
2013-02-09 17:38:00,50.4,18.5,29.41,NE,52,0.0,0.0,28,0.00,,,0.04,VWS V14.00,2013-02-09 22:38:00,
2013-02-09 17:43:00,49.5,17.7,29.41,NE,52,0.0,0.0,28,0.00,,,0.04,VWS V14.00,2013-02-09 22:43:00,
2013-02-09 17:48:00,48.6,17.8,29.41,NE,52,0.0,0.0,29,0.00,,,0.04,VWS V14.00,2013-02-09 22:48:00,
2013-02-09 17:53:00,47.5,17.6,29.44,SE,142,0.0,0.0,30,0.00,,,0.04,VWS V14.00,2013-02-09 22:53:00,
2013-02-09 17:58:00,46.2,17.3,29.44,SE,142,2.0,2.5,31,0.00,,,0.04,VWS V14.00,2013-02-09 22:58:00,
2013-02-09 18:04:00,45.7,17.5,29.44,SE,142,0.0,0.9,32,0.00,,,0.04,VWS V14.00,2013-02-09 23:04:00,
2013-02-09 18:09:00,44.6,18.7,29.44,SE,142,0.0,0.0,35,0.00,,,0.04,VWS V14.00,2013-02-09 23:09:00,
2013-02-09 18:14:00,43.7,19.8,29.44,SE,142,0.0,0.0,38,0.00,,,0.04,VWS V14.00,2013-02-09 23:14:00,
2013-02-09 18:19:00,42.8,19.0,29.44,SE,142,0.0,0.0,38,0.00,,,0.04,VWS V14.00,2013-02-09 23:19:00,
2013-02-09 18:24:00,42.1,18.3,29.44,SE,142,0.0,0.0,38,0.00,,,0.04,VWS V14.00,2013-02-09 23:24:00,
2013-02-09 18:29:00,41.5,17.8,29.44,SE,142,0.0,0.0,38,0.00,,,0.04,VWS V14.00,2013-02-09 23:29:00,
2013-02-09 18:34:00,40.6,17.6,29.44,WNW,300,0.0,0.0,39,0.00,,,0.04,VWS V14.00,2013-02-09 23:34:00,
2013-02-09 18:39:00,39.9,17.6,29.44,WNW,300,0.0,0.0,40,0.00,,,0.04,VWS V14.00,2013-02-09 23:39:00,
2013-02-09 18:45:00,39.6,17.2,29.44,WNW,300,0.0,0.0,40,0.00,,,0.04,VWS V14.00,2013-02-09 23:45:00,
2013-02-09 18:50:00,39.0,17.3,29.44,WNW,300,0.0,0.0,41,0.00,,,0.04,VWS V14.00,2013-02-09 23:50:00,
2013-02-09 18:55:00,38.5,17.4,29.44,WNW,300,0.0,0.0,42,0.00,,,0.04,VWS V14.00,2013-02-09 23:55:00,
2013-02-09 19:00:00,37.9,16.9,29.44,WNW,300,0.0,0.0,42,0.00,,,0.04,VWS V14.00,2013-02-10 00:00:00,
2013-02-09 19:05:00,37.6,18.2,29.44,WNW,300,0.0,0.0,45,0.00,,,0.04,VWS V14.00,2013-02-10 00:05:00,
2013-02-09 19:10:00,37.0,18.2,29.47,WNW,300,0.0,0.0,46,0.00,,,0.04,VWS V14.00,2013-02-10 00:10:00,
2013-02-09 19:15:00,36.7,17.9,29.47,WNW,300,0.0,0.0,46,0.00,,,0.04,VWS V14.00,2013-02-10 00:15:00,
2013-02-09 19:20:00,36.5,17.7,29.47,NE,52,0.0,0.0,46,0.00,,,0.04,VWS V14.00,2013-02-10 00:20:00,
2013-02-09 19:25:00,36.1,18.4,29.47,NE,52,0.0,0.0,48,0.00,,,0.04,VWS V14.00,2013-02-10 00:25:00,
2013-02-09 19:30:00,35.8,19.0,29.47,NE,52,0.0,0.0,50,0.00,,,0.04,VWS V14.00,2013-02-10 00:30:00,
2013-02-09 19:35:00,35.4,18.6,29.47,NE,52,0.0,0.0,50,0.00,,,0.04,VWS V14.00,2013-02-10 00:35:00,
2013-02-09 19:40:00,35.2,18.5,29.47,NE,52,0.0,0.0,50,0.00,,,0.04,VWS V14.00,2013-02-10 00:40:00,
2013-02-09 19:45:00,35.1,19.2,29.47,NE,52,0.0,0.0,52,0.00,,,0.04,VWS V14.00,2013-02-10 00:45:00,
2013-02-09 19:51:00,34.7,19.3,29.47,NE,52,0.0,0.0,53,0.00,,,0.04,VWS V14.00,2013-02-10 00:51:00,
2013-02-09 19:56:00,34.3,18.5,29.47,NE,52,0.0,0.0,52,0.00,,,0.04,VWS V14.00,2013-02-10 00:56:00,
2013-02-09 20:01:00,34.2,18.8,29.47,NE,52,0.0,0.0,53,0.00,,,0.04,VWS V14.00,2013-02-10 01:01:00,
2013-02-09 20:06:00,34.3,19.4,29.47,NW,322,2.2,2.5,54,0.00,,,0.04,VWS V14.00,2013-02-10 01:06:00,
2013-02-09 20:11:00,34.0,20.4,29.47,NW,322,1.3,2.5,57,0.00,,,0.04,VWS V14.00,2013-02-10 01:11:00,
2013-02-09 20:16:00,33.6,18.8,29.47,NW,322,0.0,0.0,54,0.00,,,0.04,VWS V14.00,2013-02-10 01:16:00,
2013-02-09 20:21:00,33.4,19.0,29.47,NW,322,0.0,0.0,55,0.00,,,0.04,VWS V14.00,2013-02-10 01:21:00,
2013-02-09 20:26:00,33.4,18.6,29.50,NW,322,0.0,0.0,54,0.00,,,0.04,VWS V14.00,2013-02-10 01:26:00,
2013-02-09 20:31:00,33.3,18.9,29.50,NW,322,0.0,0.0,55,0.00,,,0.04,VWS V14.00,2013-02-10 01:31:00,
2013-02-09 20:36:00,32.9,18.9,29.50,NW,322,0.0,0.0,56,0.00,,,0.04,VWS V14.00,2013-02-10 01:36:00,
2013-02-09 20:41:00,32.9,19.8,29.50,NW,322,1.3,2.0,58,0.00,,,0.04,VWS V14.00,2013-02-10 01:41:00,
2013-02-09 20:46:00,32.7,18.8,29.50,NW,322,0.0,0.0,56,0.00,,,0.04,VWS V14.00,2013-02-10 01:46:00,
2013-02-09 20:51:00,32.5,19.0,29.50,NNW,345,0.0,0.0,57,0.00,,,0.04,VWS V14.00,2013-02-10 01:51:00,
2013-02-09 20:57:00,32.4,18.8,29.50,NNW,345,0.0,0.0,57,0.00,,,0.04,VWS V14.00,2013-02-10 01:57:00,
2013-02-09 21:02:00,32.2,19.1,29.50,NNW,345,0.0,0.0,58,0.00,,,0.04,VWS V14.00,2013-02-10 02:02:00,
2013-02-09 21:07:00,32.0,20.1,29.50,NNW,345,0.0,0.0,61,0.00,,,0.04,VWS V14.00,2013-02-10 02:07:00,
2013-02-09 21:12:00,31.6,19.4,29.50,NNW,345,0.0,0.0,60,0.00,,,0.04,VWS V14.00,2013-02-10 02:12:00,
2013-02-09 21:17:00,31.6,19.0,29.50,NNW,345,0.0,0.0,59,0.00,,,0.04,VWS V14.00,2013-02-10 02:17:00,
2013-02-09 21:22:00,31.5,18.8,29.50,ESE,120,0.0,0.0,59,0.00,,,0.04,VWS V14.00,2013-02-10 02:22:00,
2013-02-09 21:27:00,31.3,19.0,29.50,ESE,120,0.0,0.0,60,0.00,,,0.04,VWS V14.00,2013-02-10 02:27:00,
2013-02-09 21:32:00,30.9,18.7,29.50,ESE,120,0.0,0.0,60,0.00,,,0.04,VWS V14.00,2013-02-10 02:32:00,
2013-02-09 21:37:00,30.7,20.4,29.50,ESE,120,0.0,0.0,65,0.00,,,0.04,VWS V14.00,2013-02-10 02:37:00,
2013-02-09 21:42:00,30.6,19.9,29.50,ESE,120,0.0,0.0,64,0.00,,,0.04,VWS V14.00,2013-02-10 02:42:00,
2013-02-09 21:47:00,30.2,19.5,29.50,ESE,120,0.0,0.0,64,0.00,,,0.04,VWS V14.00,2013-02-10 02:47:00,
2013-02-09 21:52:00,30.0,19.3,29.47,ESE,120,0.0,0.0,64,0.00,,,0.04,VWS V14.00,2013-02-10 02:52:00,
2013-02-09 21:57:00,30.2,19.5,29.47,ESE,120,0.0,0.0,64,0.00,,,0.04,VWS V14.00,2013-02-10 02:57:00,
2013-02-09 22:02:00,30.0,19.0,29.47,ESE,120,0.0,0.0,63,0.00,,,0.04,VWS V14.00,2013-02-10 03:02:00,
2013-02-09 22:08:00,29.7,19.4,29.50,ESE,120,0.0,0.0,65,0.00,,,0.04,VWS V14.00,2013-02-10 03:08:00,
2013-02-09 22:13:00,29.5,19.2,29.50,SSE,165,2.0,2.0,65,0.00,,,0.04,VWS V14.00,2013-02-10 03:13:00,
2013-02-09 22:18:00,29.5,20.2,29.50,ESE,120,0.0,2.5,68,0.00,,,0.04,VWS V14.00,2013-02-10 03:18:00,
2013-02-09 22:23:00,29.5,20.2,29.47,ESE,120,0.0,0.0,68,0.00,,,0.04,VWS V14.00,2013-02-10 03:23:00,
2013-02-09 22:28:00,29.3,19.7,29.47,ESE,120,0.0,0.0,67,0.00,,,0.04,VWS V14.00,2013-02-10 03:28:00,
2013-02-09 22:33:00,29.1,20.6,29.47,ESE,120,0.0,0.0,70,0.00,,,0.04,VWS V14.00,2013-02-10 03:33:00,
2013-02-09 22:38:00,28.9,19.4,29.50,ESE,120,0.0,0.0,67,0.00,,,0.04,VWS V14.00,2013-02-10 03:38:00,
2013-02-09 22:43:00,28.8,18.9,29.50,ESE,120,0.0,0.0,66,0.00,,,0.04,VWS V14.00,2013-02-10 03:43:00,
2013-02-09 22:48:00,28.8,19.2,29.50,ESE,120,0.0,0.0,67,0.00,,,0.04,VWS V14.00,2013-02-10 03:48:00,
2013-02-09 22:53:00,28.6,18.3,29.50,ESE,120,0.0,0.0,65,0.00,,,0.04,VWS V14.00,2013-02-10 03:53:00,
2013-02-09 22:58:00,28.4,18.5,29.50,ESE,120,0.0,0.0,66,0.00,,,0.04,VWS V14.00,2013-02-10 03:58:00,
2013-02-09 23:03:00,28.4,19.2,29.50,ESE,120,0.0,0.0,68,0.00,,,0.04,VWS V14.00,2013-02-10 04:03:00,
2013-02-09 23:08:00,28.4,19.5,29.47,ESE,120,0.0,0.0,69,0.00,,,0.04,VWS V14.00,2013-02-10 04:08:00,
2013-02-09 23:13:00,28.2,20.0,29.47,ESE,120,0.0,0.0,71,0.00,,,0.04,VWS V14.00,2013-02-10 04:13:00,
2013-02-09 23:18:00,28.0,19.5,29.47,ESE,120,0.0,0.0,70,0.00,,,0.04,VWS V14.00,2013-02-10 04:18:00,
2013-02-09 23:23:00,27.9,19.0,29.50,ESE,120,0.0,0.0,69,0.00,,,0.04,VWS V14.00,2013-02-10 04:23:00,
2013-02-09 23:28:00,27.9,19.4,29.50,ESE,120,0.0,0.0,70,0.00,,,0.04,VWS V14.00,2013-02-10 04:28:00,
2013-02-09 23:34:00,27.7,19.2,29.50,ESE,120,0.0,0.0,70,0.00,,,0.04,VWS V14.00,2013-02-10 04:34:00,
2013-02-09 23:39:00,27.3,18.8,29.47,ESE,120,0.0,0.0,70,0.00,,,0.04,VWS V14.00,2013-02-10 04:39:00,
2013-02-09 23:44:00,27.3,18.5,29.47,ESE,120,0.0,0.0,69,0.00,,,0.04,VWS V14.00,2013-02-10 04:44:00,
2013-02-09 23:49:00,27.1,19.0,29.47,ESE,120,0.0,0.0,71,0.00,,,0.04,VWS V14.00,2013-02-10 04:49:00,
2013-02-09 23:54:00,27.1,19.0,29.50,ESE,120,0.0,0.0,71,0.00,,,0.00,VWS V14.00,2013-02-10 04:54:00,
2013-02-09 23:59:00,27.0,18.8,29.50,ESE,120,0.0,0.0,71,0.00,,,0.00,VWS V14.00,2013-02-10 04:59:00,